Time;durP1;ratioP1;P1;durP2;ratioP2;P2;SDS_P1;SDS_P2;PMS_P1;PMS_P2;Temp;Humidity;BMP_temperature;BMP_pressure;BME280_temperature;BME280_humidity;BME280_pressure;Samples;Min_cycle;Max_cycle;Signal;HPM_P1;HPM_P2
2022/08/04 00:02:37;;;;;;;12.78;11.22;;;;;;;20.62;100.00;99691.73;1785460;80;21228;-80
2022/08/04 00:06:06;;;;;;;15.40;10.32;;;;;;;20.59;100.00;99695.02;1785375;80;21765;-80
2022/08/04 00:09:22;;;;;;;12.53;10.08;;;;;;;20.58;100.00;99696.67;1785762;80;21223;-81
2022/08/04 00:12:29;;;;;;;13.80;8.98;;;;;;;20.51;100.00;99703.78;1785763;80;21737;-81
2022/08/04 00:15:36;;;;;;;14.20;9.50;;;;;;;20.48;100.00;99705.70;1785834;80;21133;-81
2022/08/04 00:18:54;;;;;;;13.98;9.73;;;;;;;20.32;100.00;99705.14;1784401;80;21174;-79
2022/08/04 00:22:06;;;;;;;15.78;10.03;;;;;;;20.31;100.00;99700.13;1785623;80;21176;-80
2022/08/04 00:25:12;;;;;;;13.88;10.53;;;;;;;20.33;100.00;99702.67;1785930;80;21137;-80
2022/08/04 00:28:17;;;;;;;11.22;9.78;;;;;;;20.27;100.00;99709.23;1784826;80;21231;-81
2022/08/04 00:31:24;;;;;;;13.80;10.90;;;;;;;20.19;100.00;99710.52;1785716;80;21736;-80
2022/08/04 00:34:33;;;;;;;14.78;11.63;;;;;;;20.15;100.00;99710.73;1783868;80;21189;-80
2022/08/04 00:37:39;;;;;;;17.12;12.33;;;;;;;20.09;100.00;99711.72;1784448;80;21180;-80
2022/08/04 00:40:53;;;;;;;18.10;12.18;;;;;;;20.08;100.00;99708.66;1784392;80;21244;-80
2022/08/04 00:44:16;;;;;;;15.75;12.45;;;;;;;20.05;100.00;99707.24;1785067;80;21197;-80
2022/08/04 00:47:41;;;;;;;16.82;13.35;;;;;;;19.94;100.00;99706.77;1785177;80;21216;-80
2022/08/04 00:51:13;;;;;;;14.60;11.33;;;;;;;19.95;100.00;99711.25;1784441;80;21180;-80
2022/08/04 00:55:03;;;;;;;15.20;11.33;;;;;;;19.92;100.00;99708.97;1784829;80;21169;-80
2022/08/04 00:58:43;;;;;;;15.13;12.40;;;;;;;19.91;100.00;99711.45;1784897;80;21223;-80
2022/08/04 01:02:05;;;;;;;16.25;12.90;;;;;;;19.86;100.00;99718.30;1785733;80;21141;-80
2022/08/04 01:05:30;;;;;;;18.37;12.43;;;;;;;19.78;100.00;99710.39;1784696;80;21189;-80
2022/08/04 01:09:03;;;;;;;15.30;12.65;;;;;;;19.72;100.00;99710.85;1771000;81;21616;-80
2022/08/04 01:12:08;;;;;;;17.90;12.43;;;;;;;19.74;100.00;99710.59;1782575;79;21190;-80
2022/08/04 01:15:24;;;;;;;13.50;11.55;;;;;;;19.96;100.00;99716.25;1770463;81;21749;-80
2022/08/04 01:19:08;;;;;;;14.40;11.22;;;;;;;19.79;100.00;99717.06;1770468;81;21896;-80
2022/08/04 01:22:42;;;;;;;13.25;10.95;;;;;;;19.73;100.00;99720.02;1771599;81;21701;-81
2022/08/04 01:26:08;;;;;;;17.87;12.85;;;;;;;19.73;100.00;99717.23;1771993;81;21150;-80
2022/08/04 01:29:20;;;;;;;15.95;12.88;;;;;;;19.79;100.00;99726.78;1731295;82;21173;-80
2022/08/04 01:32:45;;;;;;;19.17;13.58;;;;;;;19.77;100.00;99728.14;1771597;81;21197;-81
2022/08/04 01:35:58;;;;;;;17.67;13.78;;;;;;;19.75;100.00;99731.69;1772027;81;21189;-81
2022/08/04 01:42:28;;;;;;;17.62;13.85;;;;;;;19.77;100.00;99730.36;1771513;81;21193;-81
2022/08/04 01:45:34;;;;;;;15.45;12.88;;;;;;;19.83;100.00;99732.67;1770824;81;21193;-80
2022/08/04 01:48:39;;;;;;;17.98;13.65;;;;;;;19.86;100.00;99725.25;1770631;81;21165;-80
2022/08/04 01:51:47;;;;;;;20.32;13.53;;;;;;;19.87;100.00;99730.53;1770718;81;21213;-80
2022/08/04 01:54:53;;;;;;;22.77;16.07;;;;;;;19.87;100.00;99722.20;1771209;81;21205;-80
2022/08/04 01:58:00;;;;;;;17.12;15.23;;;;;;;19.78;100.00;99727.88;1771195;81;21181;-80
2022/08/04 02:01:09;;;;;;;16.90;13.93;;;;;;;19.86;100.00;99730.24;1772011;81;21158;-80
2022/08/04 02:04:21;;;;;;;17.13;14.03;;;;;;;19.99;100.00;99724.05;1772392;81;21730;-80
2022/08/04 02:07:55;;;;;;;19.60;15.18;;;;;;;19.93;100.00;99726.45;1782231;80;21744;-80
2022/08/04 02:11:09;;;;;;;17.07;14.45;;;;;;;19.85;100.00;99723.53;1770767;80;21722;-80
2022/08/04 02:14:44;;;;;;;20.20;16.40;;;;;;;19.86;100.00;99729.41;1771898;81;21216;-81
2022/08/04 02:18:11;;;;;;;18.67;14.95;;;;;;;19.69;100.00;99725.22;1761124;81;21197;-80
2022/08/04 02:21:18;;;;;;;17.00;15.05;;;;;;;19.77;100.00;99729.52;1771355;81;21169;-80
2022/08/04 02:24:25;;;;;;;19.98;15.95;;;;;;;19.79;100.00;99728.71;1771744;81;21201;-80
2022/08/04 02:27:34;;;;;;;19.75;15.83;;;;;;;19.81;100.00;99733.48;1771360;81;21185;-80
2022/08/04 02:30:46;;;;;;;19.30;15.83;;;;;;;19.81;100.00;99739.03;1771740;81;21722;-80
2022/08/04 02:34:11;;;;;;;20.55;15.38;;;;;;;19.83;100.00;99735.45;1769179;80;21213;-80
2022/08/04 02:37:16;;;;;;;15.65;14.00;;;;;;;19.84;100.00;99734.34;1770740;81;21174;-80
2022/08/04 02:40:27;;;;;;;20.12;14.70;;;;;;;19.85;100.00;99733.25;1771770;81;21667;-80
2022/08/04 02:43:33;;;;;;;18.07;15.35;;;;;;;19.84;100.00;99738.52;1771981;81;21193;-80
2022/08/04 02:46:36;;;;;;;18.10;15.13;;;;;;;19.83;100.00;99739.06;1772012;81;21188;-80
2022/08/04 02:49:30;;;;;;;17.85;15.00;;;;;;;19.85;100.00;99734.64;1771994;81;21137;-80
2022/08/04 02:52:20;;;;;;;18.95;14.38;;;;;;;19.94;100.00;99735.91;1770919;81;21236;-81
2022/08/04 02:55:13;;;;;;;21.12;14.30;;;;;;;20.09;100.00;99744.52;1771469;81;21216;-80
2022/08/04 02:57:59;;;;;;;18.30;16.02;;;;;;;20.23;100.00;99745.53;1771114;81;21237;-81
2022/08/04 03:00:52;;;;;;;18.30;15.03;;;;;;;20.34;100.00;99744.63;1772102;81;21212;-80
2022/08/04 03:04:02;;;;;;;16.23;14.38;;;;;;;20.52;100.00;99744.93;1770849;80;21208;-80
2022/08/04 03:07:37;;;;;;;19.57;15.30;;;;;;;20.75;100.00;99741.06;1771451;81;21718;-80
2022/08/04 03:11:12;;;;;;;21.40;15.55;;;;;;;20.93;100.00;99737.42;1784193;80;21192;-79
2022/08/04 03:14:44;;;;;;;13.80;12.40;;;;;;;21.25;100.00;99747.00;1785643;80;21113;-79
2022/08/04 03:18:30;;;;;;;20.75;15.43;;;;;;;21.62;100.00;99749.39;1784776;80;21762;-80
2022/08/04 03:21:55;;;;;;;19.55;15.63;;;;;;;21.95;100.00;99751.66;1785388;80;22062;-80
2022/08/04 03:25:24;;;;;;;18.82;15.32;;;;;;;22.16;100.00;99747.99;1785473;80;21757;-80
2022/08/04 03:28:59;;;;;;;17.95;15.58;;;;;;;22.08;100.00;99743.42;1784465;80;21188;-80
2022/08/04 03:32:47;;;;;;;16.73;14.58;;;;;;;22.38;100.00;99752.04;1785359;80;21757;-80
2022/08/04 03:36:15;;;;;;;16.97;14.55;;;;;;;22.44;100.00;99750.13;1785330;80;21195;-80
2022/08/04 03:39:47;;;;;;;16.67;13.50;;;;;;;22.48;100.00;99750.43;1785663;80;21137;-80
2022/08/04 03:43:12;;;;;;;15.13;12.63;;;;;;;22.61;100.00;99748.02;1784908;80;21188;-80
2022/08/04 03:46:43;;;;;;;14.90;12.55;;;;;;;22.73;100.00;99750.61;1784014;80;21189;-80
2022/08/04 03:50:32;;;;;;;13.57;11.37;;;;;;;22.76;100.00;99745.03;1785873;80;21192;-80
2022/08/04 03:54:00;;;;;;;11.95;10.38;;;;;;;22.85;100.00;99753.17;1785391;80;21193;-80
2022/08/04 03:57:16;;;;;;;12.37;10.15;;;;;;;22.61;100.00;99751.36;1784309;80;21224;-80
2022/08/04 04:00:28;;;;;;;22.10;11.28;;;;;;;22.55;100.00;99763.03;1785628;80;21705;-80
2022/08/04 04:04:08;;;;;;;11.03;9.68;;;;;;;22.44;100.00;99759.34;1784368;80;21168;-80
2022/08/04 04:07:30;;;;;;;13.45;10.93;;;;;;;22.35;100.00;99751.20;1768182;80;21176;-80
2022/08/04 04:11:09;;;;;;;12.63;11.28;;;;;;;22.30;100.00;99761.44;1773406;80;21185;-80
2022/08/04 04:14:56;;;;;;;11.38;10.25;;;;;;;22.20;100.00;99760.25;1772167;81;21161;-80
2022/08/04 04:18:24;;;;;;;14.78;10.40;;;;;;;22.20;100.00;99760.25;1771203;81;21197;-80
2022/08/04 04:21:50;;;;;;;12.37;11.10;;;;;;;22.26;100.00;99763.95;1771894;81;21197;-80
2022/08/04 04:25:27;;;;;;;13.10;11.22;;;;;;;22.25;100.00;99765.58;1772000;81;21205;-80
2022/08/04 04:29:03;;;;;;;11.85;10.65;;;;;;;22.27;100.00;99771.19;1770867;81;21212;-80
2022/08/04 04:32:42;;;;;;;13.35;10.20;;;;;;;22.41;100.00;99771.02;1771798;81;21714;-79
2022/08/04 04:36:06;;;;;;;12.43;10.30;;;;;;;22.57;100.00;99780.87;1770541;81;21174;-81
2022/08/04 04:39:57;;;;;;;12.88;11.03;;;;;;;22.56;98.91;99778.64;1770773;81;21706;-79
2022/08/04 04:43:40;;;;;;;24.02;11.30;;;;;;;22.44;99.52;99782.16;1771263;81;21189;-80
2022/08/04 04:46:59;;;;;;;18.67;12.47;;;;;;;22.42;100.00;99773.25;1771275;81;21189;-80
2022/08/04 04:50:29;;;;;;;12.25;10.70;;;;;;;22.64;99.54;99781.49;1771876;81;21158;-80
2022/08/04 04:53:51;;;;;;;14.50;11.38;;;;;;;22.88;98.89;99781.92;1771515;81;21162;-80
2022/08/04 04:57:21;;;;;;;15.75;10.20;;;;;;;23.09;96.92;99785.11;1771326;81;22072;-80
2022/08/04 05:00:31;;;;;;;12.47;11.18;;;;;;;23.29;95.60;99784.92;1771556;81;21469;-80
2022/08/04 05:04:02;;;;;;;10.27;8.63;;;;;;;23.41;94.58;99779.95;1770967;81;21189;-81
2022/08/04 05:07:43;;;;;;;10.30;8.50;;;;;;;23.59;92.30;99782.25;1771216;81;21165;-80
2022/08/04 05:11:19;;;;;;;10.32;9.23;;;;;;;23.67;89.20;99784.55;1771041;81;21185;-79
2022/08/04 05:14:37;;;;;;;12.37;9.55;;;;;;;23.86;88.51;99791.01;1770483;81;21225;-80
2022/08/04 05:17:47;;;;;;;13.58;12.03;;;;;;;24.08;87.47;99790.73;1770834;81;21205;-79
2022/08/04 05:20:58;;;;;;;12.73;11.45;;;;;;;24.14;86.40;99794.67;1771929;81;21157;-80
2022/08/04 05:24:06;;;;;;;13.90;11.90;;;;;;;24.16;86.96;99794.39;1771669;81;21193;-80
2022/08/04 05:27:13;;;;;;;17.17;13.00;;;;;;;24.26;86.61;99803.33;1771369;81;21710;-81
2022/08/04 05:30:19;;;;;;;14.47;12.88;;;;;;;24.31;86.32;99805.56;1771987;81;21153;-80
2022/08/04 05:33:41;;;;;;;13.22;11.78;;;;;;;24.40;85.77;99801.69;1770932;81;21196;-78
2022/08/04 05:36:51;;;;;;;13.35;11.70;;;;;;;24.53;84.90;99794.14;1770543;80;21292;-79
2022/08/04 05:40:09;;;;;;;13.03;10.72;;;;;;;24.68;82.62;99801.09;1770922;81;21197;-80
2022/08/04 05:43:16;;;;;;;10.95;9.43;;;;;;;24.98;82.68;99806.34;1771839;81;21187;-80
2022/08/04 05:46:23;;;;;;;11.43;8.45;;;;;;;25.20;80.12;99802.68;1772080;81;21154;-80
2022/08/04 05:49:35;;;;;;;18.80;9.30;;;;;;;25.34;78.25;99809.08;1770687;81;21150;-81
2022/08/04 05:52:41;;;;;;;10.05;8.30;;;;;;;25.45;77.51;99805.96;1771467;81;21201;-80
2022/08/04 05:55:47;;;;;;;11.85;8.70;;;;;;;25.62;76.58;99806.98;1772143;81;22560;-80
2022/08/04 05:58:46;;;;;;;13.85;8.55;;;;;;;25.84;75.12;99802.98;1770783;81;21201;-80
2022/08/04 06:01:53;;;;;;;9.28;7.92;;;;;;;25.89;74.63;99802.95;1771998;81;21300;-80
2022/08/04 06:04:59;;;;;;;10.18;7.85;;;;;;;26.15;73.03;99814.23;1771886;81;21149;-79
2022/08/04 06:08:05;;;;;;;10.08;8.33;;;;;;;26.05;71.96;99810.11;1771247;81;21189;-80
2022/08/04 06:11:14;;;;;;;11.90;8.83;;;;;;;26.05;72.40;99807.88;1771700;80;21193;-79
2022/08/04 06:14:20;;;;;;;9.18;7.03;;;;;;;26.28;71.84;99816.13;1771963;81;21722;-79
2022/08/04 06:17:38;;;;;;;10.15;8.18;;;;;;;26.52;70.90;99817.64;1771369;81;21729;-79
2022/08/04 06:20:48;;;;;;;12.88;7.28;;;;;;;26.56;69.44;99818.16;1772804;81;21698;-79
2022/08/04 06:23:55;;;;;;;7.58;6.12;;;;;;;26.43;68.99;99810.41;1773376;81;21209;-80
2022/08/04 06:27:02;;;;;;;8.10;6.62;;;;;;;26.16;69.78;99811.73;1774585;78;21209;-81
2022/08/04 06:30:12;;;;;;;11.20;7.08;;;;;;;25.93;70.69;99807.69;1772041;81;21142;-80
2022/08/04 06:36:39;;;;;;;9.33;6.85;;;;;;;26.35;70.21;99806.80;1750419;80;21726;-81
2022/08/04 06:39:46;;;;;;;7.17;5.85;;;;;;;26.54;69.80;99800.80;1771975;81;21166;-81
2022/08/04 06:42:52;;;;;;;8.50;6.42;;;;;;;26.79;67.15;99801.69;1762182;81;21758;-81
2022/08/04 06:45:57;;;;;;;7.92;6.80;;;;;;;27.00;64.84;99797.52;1754187;81;21187;-81
2022/08/04 06:49:04;;;;;;;6.25;3.80;;;;;;;27.15;62.81;99804.41;1760911;81;21114;-80
2022/08/04 06:52:16;;;;;;;6.20;5.35;;;;;;;27.33;60.34;99798.55;1757368;81;21690;-80
2022/08/04 06:55:19;;;;;;;7.05;6.12;;;;;;;27.54;60.32;99791.30;1756449;81;21182;-80
2022/08/04 06:58:26;;;;;;;7.22;6.33;;;;;;;27.72;62.27;99800.34;1753803;81;21159;-82
2022/08/04 07:01:32;;;;;;;9.15;7.40;;;;;;;27.85;61.56;99797.33;1751726;81;21175;-81
2022/08/04 07:04:39;;;;;;;11.08;8.13;;;;;;;27.74;61.96;99795.25;1755828;81;21690;-82
2022/08/04 07:07:46;;;;;;;10.95;7.60;;;;;;;27.76;60.36;99795.22;1758478;81;21234;-81
2022/08/04 07:10:46;;;;;;;8.38;6.30;;;;;;;27.91;59.45;99798.38;1755021;81;21135;-81
2022/08/04 07:13:48;;;;;;;6.58;5.87;;;;;;;28.05;59.18;99798.45;1757123;81;21146;-81
2022/08/04 07:16:56;;;;;;;8.15;6.78;;;;;;;28.18;57.47;99799.09;1752447;81;21708;-83
2022/08/04 07:20:02;;;;;;;9.25;7.40;;;;;;;28.25;57.14;99793.91;1753312;81;21563;-80
2022/08/04 07:23:12;;;;;;;10.68;7.47;;;;;;;28.28;57.91;99801.73;1756484;81;21149;-79
2022/08/04 07:26:18;;;;;;;10.75;7.55;;;;;;;28.28;58.15;99800.33;1756844;81;21459;-80
2022/08/04 07:29:25;;;;;;;12.53;7.72;;;;;;;28.27;58.66;99797.80;1754257;81;21671;-80
2022/08/04 07:32:32;;;;;;;9.90;7.45;;;;;;;28.29;58.25;99794.13;1756072;81;21761;-80
2022/08/04 07:35:38;;;;;;;8.25;7.15;;;;;;;28.42;58.46;99798.15;1754347;81;21682;-81
2022/08/04 07:38:48;;;;;;;8.55;6.97;;;;;;;28.50;58.15;99799.69;1753106;81;21715;-80
2022/08/04 07:41:55;;;;;;;10.43;7.90;;;;;;;28.44;55.54;99803.74;1753065;81;21186;-80
2022/08/04 07:45:01;;;;;;;9.68;8.05;;;;;;;27.97;57.94;99797.73;1753991;81;21150;-80
2022/08/04 07:48:09;;;;;;;10.03;8.10;;;;;;;27.61;58.26;99793.14;1754369;81;21723;-81
2022/08/04 07:51:15;;;;;;;9.15;7.45;;;;;;;27.39;57.83;99795.14;1750134;81;21193;-81
2022/08/04 07:54:20;;;;;;;9.83;7.05;;;;;;;27.30;57.65;99797.77;1752748;81;21173;-80
2022/08/04 07:57:26;;;;;;;12.70;7.45;;;;;;;27.14;58.42;99791.48;1754679;81;21142;-81
2022/08/04 08:00:33;;;;;;;16.37;9.63;;;;;;;27.01;58.36;99803.42;1766799;81;21352;-80
2022/08/04 08:03:43;;;;;;;13.75;9.30;;;;;;;27.03;59.72;99805.34;1746049;81;21195;-80
2022/08/04 08:06:42;;;;;;;15.75;8.78;;;;;;;27.12;60.98;99801.36;1757536;81;21196;-80
2022/08/04 08:09:35;;;;;;;11.60;8.80;;;;;;;27.03;61.82;99809.55;1771233;81;21798;-81
2022/08/04 08:12:42;;;;;;;13.80;8.43;;;;;;;27.01;62.41;99809.03;1744111;81;21709;-80
2022/08/04 08:15:51;;;;;;;9.40;7.45;;;;;;;26.98;63.09;99813.82;1772036;81;21221;-80
2022/08/04 08:18:56;;;;;;;9.40;7.15;;;;;;;26.86;63.02;99821.80;1771917;81;21790;-80
2022/08/04 08:22:03;;;;;;;9.33;7.72;;;;;;;26.66;65.10;99824.23;1771825;81;21802;-81
2022/08/04 08:25:09;;;;;;;10.28;7.97;;;;;;;26.38;66.07;99827.25;1772260;81;21153;-81
2022/08/04 08:28:16;;;;;;;10.98;8.13;;;;;;;26.07;67.33;99827.48;1770771;81;21687;-81
2022/08/04 08:31:21;;;;;;;9.68;8.65;;;;;;;25.91;67.81;99828.70;1772285;81;21158;-81
2022/08/04 08:34:29;;;;;;;10.08;8.78;;;;;;;25.76;68.08;99833.00;1771863;81;21165;-81
2022/08/04 08:37:48;;;;;;;8.95;7.62;;;;;;;25.66;68.36;99834.69;1766417;81;21180;-81
2022/08/04 08:40:59;;;;;;;11.10;8.35;;;;;;;25.55;69.25;99824.67;1753902;81;21147;-80
2022/08/04 08:44:53;;;;;;;36.00;8.88;;;;;;;25.45;70.32;99833.95;1748085;81;21226;-80
2022/08/04 08:48:33;;;;;;;18.92;8.78;;;;;;;25.37;71.11;99834.54;1771570;81;21185;-80
2022/08/04 08:52:10;;;;;;;20.70;9.08;;;;;;;25.33;71.70;99831.20;1770922;81;21184;-79
2022/08/04 08:55:35;;;;;;;11.13;8.77;;;;;;;25.23;71.59;99832.91;1772318;81;21154;-81
2022/08/04 08:59:06;;;;;;;14.30;9.98;;;;;;;25.34;70.95;99834.27;1770721;81;21189;-80
2022/08/04 09:02:53;;;;;;;16.07;8.68;;;;;;;25.38;70.70;99833.98;1769084;81;21794;-80
2022/08/04 09:06:23;;;;;;;13.53;9.85;;;;;;;25.39;71.24;99837.88;1749945;81;21123;-81
2022/08/04 09:09:55;;;;;;;15.90;9.53;;;;;;;25.45;70.89;99834.49;1705777;84;21200;-80
2022/08/04 09:13:05;;;;;;;10.98;9.05;;;;;;;25.61;71.10;99845.92;1754420;81;21218;-81
2022/08/04 09:16:29;;;;;;;10.48;8.80;;;;;;;25.74;70.01;99848.09;1744550;81;21800;-81
2022/08/04 09:19:54;;;;;;;14.55;9.70;;;;;;;25.82;70.31;99848.64;1755750;81;21121;-81
2022/08/04 09:23:23;;;;;;;10.58;9.15;;;;;;;25.86;69.48;99854.78;1740935;82;21706;-80
2022/08/04 09:26:35;;;;;;;12.18;9.20;;;;;;;25.98;69.02;99854.45;1741728;82;21162;-80
2022/08/04 09:29:59;;;;;;;12.37;9.13;;;;;;;26.11;69.29;99854.34;1750688;81;21213;-80
2022/08/04 09:33:14;;;;;;;12.00;9.58;;;;;;;26.12;69.01;99854.64;1766928;81;21182;-80
2022/08/04 09:36:48;;;;;;;13.72;9.28;;;;;;;26.06;69.12;99855.22;1748307;81;21659;-80
2022/08/04 09:40:10;;;;;;;11.28;9.00;;;;;;;26.06;70.11;99858.02;1772038;81;21268;-80
2022/08/04 09:43:37;;;;;;;11.35;9.68;;;;;;;26.15;69.30;99851.23;1770751;80;21165;-80
2022/08/04 09:46:54;;;;;;;12.47;9.70;;;;;;;26.18;69.53;99850.10;1771876;81;21161;-81
2022/08/04 09:50:18;;;;;;;11.12;8.80;;;;;;;26.30;69.49;99852.56;1771806;81;21174;-81
2022/08/04 09:54:19;;;;;;;10.23;8.50;;;;;;;26.30;70.06;99853.09;1766144;81;21188;-81
2022/08/04 09:58:08;;;;;;;10.70;8.23;;;;;;;26.18;69.83;99848.70;1746133;81;21214;-80
2022/08/04 10:01:17;;;;;;;10.78;8.78;;;;;;;26.04;70.13;99851.88;1740491;82;21163;-80
2022/08/04 10:04:24;;;;;;;14.38;9.43;;;;;;;25.98;70.72;99847.44;1741415;82;21194;-80
2022/08/04 10:08:01;;;;;;;9.88;8.88;;;;;;;25.90;70.69;99845.23;1741180;81;21218;-79
2022/08/04 10:11:23;;;;;;;9.53;8.35;;;;;;;25.89;70.49;99845.81;1760197;81;21165;-80
2022/08/04 10:15:01;;;;;;;10.45;7.95;;;;;;;25.97;70.06;99849.41;1771935;81;21170;-81
2022/08/04 10:18:28;;;;;;;13.80;8.70;;;;;;;26.04;69.90;99846.84;1728519;81;21180;-80
2022/08/04 10:21:46;;;;;;;9.18;8.10;;;;;;;26.13;68.72;99849.30;1751233;81;21148;-80
2022/08/04 10:25:18;;;;;;;8.75;7.85;;;;;;;26.21;67.37;99843.92;1743222;81;21722;-81
2022/08/04 10:28:28;;;;;;;8.03;7.20;;;;;;;26.22;67.47;99848.40;1745448;82;21199;-80
2022/08/04 10:31:42;;;;;;;7.87;6.62;;;;;;;26.33;66.09;99846.92;1746348;82;21191;-80
2022/08/04 10:34:52;;;;;;;8.60;6.67;;;;;;;26.44;65.72;99849.39;1715491;82;21239;-80
2022/08/04 10:38:15;;;;;;;7.97;7.17;;;;;;;26.69;65.30;99852.54;1743394;82;21215;-81
2022/08/04 10:41:34;;;;;;;10.95;6.85;;;;;;;26.93;64.17;99851.76;1743441;81;21745;-81
2022/08/04 10:45:13;;;;;;;10.53;7.05;;;;;;;27.19;63.47;99853.18;1763083;81;21212;-81
2022/08/04 10:48:32;;;;;;;9.20;6.92;;;;;;;27.39;62.83;99850.73;1720325;81;21223;-81
2022/08/04 10:52:25;;;;;;;5.53;4.97;;;;;;;27.61;62.52;99845.11;1763515;81;21775;-81
2022/08/04 10:55:37;;;;;;;6.97;5.28;;;;;;;27.74;60.05;99841.61;1761526;81;21757;-80
2022/08/04 10:58:48;;;;;;;6.17;5.15;;;;;;;27.81;59.18;99839.28;1732203;80;21172;-80
2022/08/04 11:01:55;;;;;;;;;;;;;;;27.93;58.27;99834.60;1756288;80;21255;-80
2022/08/04 11:05:28;;;;;;;6.78;5.83;;;;;;;28.11;57.45;99825.91;1710372;83;20205;-80
2022/08/04 11:08:41;;;;;;;6.97;6.20;;;;;;;28.15;58.12;99832.02;1704999;83;21173;-80
2022/08/04 11:11:55;;;;;;;6.35;4.75;;;;;;;28.32;57.98;99840.47;1686963;83;21237;-80
2022/08/04 11:15:15;;;;;;;6.12;4.85;;;;;;;28.16;55.64;99839.31;1700354;83;21172;-81
2022/08/04 11:18:32;;;;;;;9.73;6.15;;;;;;;27.99;56.47;99844.62;1713248;82;21693;-82
2022/08/04 11:21:43;;;;;;;8.95;7.25;;;;;;;28.00;57.47;99842.09;1766819;81;21142;-81
2022/08/04 11:25:17;;;;;;;12.53;7.10;;;;;;;27.96;58.21;99836.81;1749259;81;21153;-82
2022/08/04 11:28:48;;;;;;;7.37;6.45;;;;;;;27.93;58.96;99831.22;1769246;81;21737;-81
2022/08/04 11:31:56;;;;;;;14.50;7.25;;;;;;;27.93;58.63;99834.60;1765148;81;21173;-81
2022/08/04 11:35:06;;;;;;;8.65;7.28;;;;;;;27.88;59.30;99829.89;1748274;81;21166;-81
2022/08/04 11:38:37;;;;;;;12.95;6.30;;;;;;;27.83;59.51;99827.72;1755855;81;21232;-82
2022/08/04 11:42:01;;;;;;;8.90;6.90;;;;;;;27.70;59.48;99824.48;1761600;81;21154;-80
2022/08/04 11:45:20;;;;;;;8.10;6.00;;;;;;;27.70;58.69;99826.45;1770213;81;21311;-79
2022/08/04 11:48:35;;;;;;;7.45;5.80;;;;;;;27.71;58.64;99831.83;1770347;81;21295;-80
2022/08/04 11:51:40;;;;;;;6.22;5.58;;;;;;;27.71;59.40;99828.12;1761859;81;21189;-80
2022/08/04 11:54:47;;;;;;;6.33;5.62;;;;;;;27.57;59.90;99822.43;1755847;81;21619;-80
2022/08/04 11:57:54;;;;;;;6.05;5.12;;;;;;;27.48;60.16;99819.45;1768394;81;21177;-80
2022/08/04 12:01:26;;;;;;;6.25;5.10;;;;;;;27.39;60.43;99821.25;1747181;81;21448;-80
2022/08/04 12:04:46;;;;;;;7.17;5.25;;;;;;;27.37;60.77;99820.69;1771008;81;21166;-80
2022/08/04 12:08:31;;;;;;;6.25;5.53;;;;;;;27.30;61.04;99818.00;1759179;81;21205;-80
2022/08/04 12:11:45;;;;;;;7.90;5.10;;;;;;;27.28;60.98;99816.03;1741703;82;21149;-81
2022/08/04 12:15:12;;;;;;;10.72;5.67;;;;;;;27.12;61.04;99813.41;1741348;82;21200;-81
2022/08/04 12:18:41;;;;;;;6.78;4.97;;;;;;;27.25;60.82;99814.11;1752109;80;21188;-81
2022/08/04 12:21:54;;;;;;;8.33;5.00;;;;;;;27.43;60.19;99808.28;1762903;80;21196;-81
2022/08/04 12:25:23;;;;;;;5.30;4.80;;;;;;;27.21;61.34;99810.80;1754973;82;21701;-82
2022/08/04 12:28:45;;;;;;;5.35;4.85;;;;;;;27.24;61.57;99809.64;1756209;80;21180;-79
2022/08/04 12:32:05;;;;;;;5.15;4.65;;;;;;;27.22;61.33;99801.23;1757204;80;21193;-80
2022/08/04 12:35:24;;;;;;;5.58;4.53;;;;;;;27.36;60.90;99802.18;1754607;82;21185;-80
2022/08/04 12:38:21;;;;;;;5.85;4.20;;;;;;;27.47;60.48;99805.11;1763163;80;21180;-80
2022/08/04 12:41:07;;;;;;;4.78;3.85;;;;;;;27.59;58.97;99808.08;1782111;80;21188;-80
2022/08/04 12:44:01;;;;;;;5.00;3.60;;;;;;;27.83;57.85;99806.65;1771929;80;21200;-80
2022/08/04 12:47:13;;;;;;;4.45;3.92;;;;;;;28.13;57.20;99806.75;1752403;82;21701;-80
2022/08/04 12:50:22;;;;;;;6.22;3.95;;;;;;;28.34;55.25;99810.09;1754382;82;21157;-81
2022/08/04 12:53:28;;;;;;;4.00;3.60;;;;;;;28.47;55.23;99803.14;1753660;82;21753;-81
2022/08/04 12:56:35;;;;;;;4.28;3.70;;;;;;;28.55;54.97;99808.61;1758540;80;21171;-81
2022/08/04 12:59:50;;;;;;;5.72;3.47;;;;;;;28.64;53.75;99799.73;1754760;82;21222;-80
2022/08/04 13:02:56;;;;;;;4.85;3.60;;;;;;;28.72;53.76;99787.78;1774055;80;21157;-81
2022/08/04 13:06:02;;;;;;;7.37;3.62;;;;;;;28.69;53.85;99782.76;1763421;80;21169;-81
2022/08/04 13:09:18;;;;;;;4.42;3.67;;;;;;;28.67;54.01;99787.87;1770658;80;21137;-81
2022/08/04 13:12:31;;;;;;;3.80;3.40;;;;;;;28.68;54.06;99781.67;1766001;80;21198;-80
2022/08/04 13:15:37;;;;;;;4.25;3.30;;;;;;;28.56;54.26;99808.91;1765326;80;21190;-81
2022/08/04 13:18:53;;;;;;;4.42;3.55;;;;;;;28.56;54.26;99808.91;1762784;80;21160;-80
2022/08/04 13:21:59;;;;;;;3.85;3.35;;;;;;;28.61;54.91;99799.54;1746142;82;21199;-80
2022/08/04 13:25:05;;;;;;;4.03;3.33;;;;;;;28.31;55.21;99795.22;1745786;82;21180;-80
2022/08/04 13:28:12;;;;;;;5.85;2.95;;;;;;;28.12;55.67;99793.27;1743717;82;21250;-80
2022/08/04 13:31:22;;;;;;;6.87;2.92;;;;;;;28.02;55.68;99794.27;1746182;82;21180;-80
2022/08/04 13:34:29;;;;;;;4.15;3.72;;;;;;;27.97;55.90;99790.70;1746299;82;21780;-80
2022/08/04 13:37:39;;;;;;;4.00;3.45;;;;;;;27.93;55.82;99798.06;1746002;82;21207;-80
2022/08/04 13:40:45;;;;;;;4.62;3.52;;;;;;;27.81;55.98;99789.23;1746737;82;21688;-80
2022/08/04 13:43:57;;;;;;;6.90;4.53;;;;;;;27.71;56.35;99790.19;1716864;82;21763;-82
2022/08/04 13:47:11;;;;;;;5.67;4.60;;;;;;;27.66;58.18;99793.91;1745255;82;21172;-81
2022/08/04 13:50:32;;;;;;;6.30;5.12;;;;;;;27.65;58.47;99799.27;1746659;82;21811;-81
2022/08/04 13:53:39;;;;;;;5.20;4.70;;;;;;;27.54;58.46;99794.94;1746155;82;21223;-81
2022/08/04 13:56:48;;;;;;;8.50;5.20;;;;;;;27.35;58.95;99792.66;1746259;82;21152;-81
2022/08/04 14:00:00;;;;;;;6.50;5.20;;;;;;;27.24;59.46;99787.72;1745758;82;21168;-81
2022/08/04 14:03:13;;;;;;;13.53;5.62;;;;;;;27.21;59.95;99791.98;1723738;82;21749;-81
2022/08/04 14:06:31;;;;;;;7.35;6.00;;;;;;;27.17;60.09;99797.91;1746157;82;21596;-81
2022/08/04 14:09:38;;;;;;;6.80;5.97;;;;;;;27.12;59.75;99795.17;1745237;82;21168;-81
2022/08/04 14:12:55;;;;;;;11.25;6.28;;;;;;;27.24;58.54;99789.98;1745491;82;21188;-81
2022/08/04 14:16:00;;;;;;;7.17;6.45;;;;;;;27.17;58.25;99790.90;1746656;82;21152;-81
2022/08/04 14:19:07;;;;;;;8.60;6.95;;;;;;;27.22;58.78;99792.81;1745665;81;21593;-81
2022/08/04 14:22:14;;;;;;;11.97;6.92;;;;;;;27.02;59.59;99792.45;1741217;82;21205;-81
2022/08/04 14:25:23;;;;;;;10.55;6.25;;;;;;;26.93;60.74;99790.86;1740105;82;21189;-80
2022/08/04 14:28:39;;;;;;;7.03;6.03;;;;;;;26.92;59.16;99786.96;1740216;82;21221;-81
2022/08/04 14:31:48;;;;;;;6.95;6.25;;;;;;;26.92;59.03;99789.19;1741139;82;21153;-81
2022/08/04 14:34:55;;;;;;;6.97;6.17;;;;;;;26.99;59.27;99788.83;1740620;82;21193;-81
2022/08/04 14:38:07;;;;;;;7.70;6.17;;;;;;;27.00;59.66;99790.50;1740654;82;21498;-81
2022/08/04 14:41:12;;;;;;;6.83;6.03;;;;;;;27.01;60.19;99796.41;1741642;82;21817;-81
2022/08/04 14:44:18;;;;;;;8.13;6.78;;;;;;;27.00;60.26;99788.52;1741306;82;21733;-81
2022/08/04 14:47:23;;;;;;;8.10;6.65;;;;;;;27.05;59.89;99789.60;1741280;82;21221;-82
2022/08/04 14:50:43;;;;;;;7.97;7.00;;;;;;;26.91;60.63;99788.06;1741514;82;21216;-82
2022/08/04 14:53:48;;;;;;;9.58;8.03;;;;;;;26.85;61.40;99787.86;1704569;84;22018;-82
2022/08/04 14:57:03;;;;;;;14.68;8.50;;;;;;;26.89;62.54;99794.55;1753445;81;21196;-82
2022/08/04 15:00:09;;;;;;;9.43;8.30;;;;;;;26.92;63.07;99795.37;1741972;82;21173;-80
2022/08/04 15:03:16;;;;;;;11.03;9.63;;;;;;;27.02;63.21;99792.45;1741278;82;21725;-81
2022/08/04 15:06:24;;;;;;;12.88;10.82;;;;;;;27.04;63.75;99787.36;1751915;81;21701;-81
2022/08/04 15:09:30;;;;;;;13.32;11.25;;;;;;;26.79;64.90;99788.48;1759117;81;21126;-81
2022/08/04 15:12:36;;;;;;;12.40;10.98;;;;;;;26.67;65.81;99788.88;1750554;81;21212;-81
2022/08/04 15:15:36;;;;;;;16.05;11.78;;;;;;;26.61;66.71;99785.86;1756785;81;21158;-81
2022/08/04 15:18:44;;;;;;;15.60;12.18;;;;;;;26.78;66.80;99788.80;1754425;81;21209;-81